Moccasin, Montana
Current Conditions -  °F | °C
As of 5:54 AM on Thursday 30 Oct 2014 (Local Time) from KLWT Reporting Station
Clear Clear  
Wind Chill: 26°   Ceiling: Unl
Heat Index: 32°   Visibility: 10mi
Dew Point: 26°   Wind: 6mph
Humidity: 79%   Direction: 140°SE
Pressure: 30.27"   Gusts: NA
Location:  47.05°N, 109.91°W
Report Text: KLWT 301154Z AUTO 14005KT 10SM CLR 00/M03 A3027 RMK AO2 SLP258 T00001033 10044 21006 52009
Loading
Personal Weather Stations






























Interactive Weather Map
Tropical Storm Tracking
New forecast layout! Learn more

10-Day Weather Forecast

Advertisements
Track Severe Weather on mobile